Time;durP1;ratioP1;P1;durP2;ratioP2;P2;SDS_P1;SDS_P2;PMS_P1;PMS_P2;Temp;Humidity;BMP_temperature;BMP_pressure;BME280_temperature;BME280_humidity;BME280_pressure;Samples;Min_cycle;Max_cycle;Signal;HPM_P1;HPM_P2
2022/01/26 00:00:18;;;;;;;116.82;58.08;;;;;;;2.18;79.31;103296.22;5018031;28;20048;-71
2022/01/26 00:08:11;;;;;;;115.40;58.90;;;;;;;2.17;79.18;103315.47;5018400;28;20095;-71
2022/01/26 00:10:36;;;;;;;117.90;59.60;;;;;;;2.19;79.92;103322.47;5030790;28;20392;-71
2022/01/26 00:13:01;;;;;;;116.82;60.33;;;;;;;2.18;80.14;103314.59;5030671;28;20325;-71
2022/01/26 00:15:29;;;;;;;117.40;58.70;;;;;;;2.16;79.41;103306.72;5022648;28;20034;-71
2022/01/26 00:17:56;;;;;;;119.03;58.70;;;;;;;2.16;79.30;103316.34;5027951;28;20033;-71
2022/01/26 00:38:59;;;;;;;124.07;59.83;;;;;;;2.15;79.07;103307.63;5001499;28;20085;-71
2022/01/26 00:41:34;;;;;;;117.18;60.08;;;;;;;2.14;79.45;103310.25;5000218;28;20030;-71
2022/01/26 00:43:59;;;;;;;117.38;56.95;;;;;;;2.12;79.22;103301.50;5014955;28;20042;-71
2022/01/26 00:46:25;;;;;;;113.28;58.92;;;;;;;2.10;79.45;103305.88;5021330;28;20052;-71
2022/01/26 00:48:51;;;;;;;122.25;59.72;;;;;;;2.08;79.86;103298.00;5027980;28;20426;-71
2022/01/26 00:51:20;;;;;;;119.68;59.08;;;;;;;2.09;79.32;103306.75;5026703;28;20041;-71
2022/01/26 00:53:46;;;;;;;124.85;61.05;;;;;;;2.09;79.23;103309.38;5029867;28;20045;-71
2022/01/26 00:56:12;;;;;;;129.05;60.28;;;;;;;2.07;79.02;103300.66;5024355;28;20026;-71
2022/01/26 00:58:37;;;;;;;124.80;59.60;;;;;;;2.06;79.24;103298.88;5024238;28;20032;-71
2022/01/26 01:01:05;;;;;;;118.53;57.13;;;;;;;2.06;79.27;103299.75;5030024;28;20029;-71
2022/01/26 01:03:33;;;;;;;124.07;60.10;;;;;;;2.06;79.04;103293.66;5029825;28;20561;-71
2022/01/26 01:06:07;;;;;;;128.33;61.87;;;;;;;2.07;79.14;103293.66;5016046;28;20549;-72
2022/01/26 01:08:33;;;;;;;126.82;59.97;;;;;;;2.04;78.99;103296.28;5029686;28;20032;-71
2022/01/26 01:10:58;;;;;;;124.13;59.03;;;;;;;2.05;79.35;103298.03;5029957;28;20025;-71
2022/01/26 01:13:40;;;;;;;125.88;59.90;;;;;;;2.04;79.16;103299.75;5029699;28;20028;-71
2022/01/26 01:16:08;;;;;;;128.68;59.72;;;;;;;2.02;79.40;103293.66;5029528;28;20041;-70
2022/01/26 01:18:50;;;;;;;123.65;58.92;;;;;;;2.03;79.67;103290.16;5029712;28;20033;-71
2022/01/26 01:24:19;;;;;;;129.15;60.40;;;;;;;2.01;79.18;103278.78;5029835;28;20407;-71
2022/01/26 01:27:21;;;;;;;120.50;58.17;;;;;;;2.02;79.53;103283.16;5029538;28;20033;-71
2022/01/26 01:29:58;;;;;;;123.75;57.28;;;;;;;2.03;79.87;103279.69;5029005;28;20041;-71
2022/01/26 01:32:34;;;;;;;124.28;58.00;;;;;;;2.03;79.68;103278.78;5028282;28;20029;-71
2022/01/26 01:35:00;;;;;;;128.05;60.22;;;;;;;2.04;79.59;103280.53;5025687;28;20037;-71
2022/01/26 01:37:25;;;;;;;125.22;59.47;;;;;;;2.04;79.14;103273.53;5029414;28;20107;-71
2022/01/26 01:39:51;;;;;;;127.22;58.88;;;;;;;2.04;79.89;103273.53;5029001;28;20079;-71
2022/01/26 01:42:16;;;;;;;121.22;59.88;;;;;;;2.04;79.90;103267.44;5029331;28;20462;-71
2022/01/26 01:44:41;;;;;;;126.68;59.75;;;;;;;2.04;80.23;103260.44;5028164;28;20025;-71
2022/01/26 01:47:07;;;;;;;124.25;58.65;;;;;;;2.06;80.43;103264.81;5028795;28;20056;-71
2022/01/26 01:49:36;;;;;;;121.30;58.70;;;;;;;2.04;79.71;103263.06;5017385;28;20049;-72
2022/01/26 01:52:06;;;;;;;128.45;60.50;;;;;;;2.04;80.03;103268.28;5007909;28;20032;-73
2022/01/26 01:54:32;;;;;;;;;;;;;;;2.12;80.17;103270.06;5028154;28;20124;-73
2022/01/26 01:56:58;;;;;;;123.70;56.75;;;;;;;2.00;79.77;103269.19;5027932;28;20383;-72
2022/01/26 01:59:27;;;;;;;121.93;58.30;;;;;;;2.00;79.50;103271.81;5029342;28;20026;-73
2022/01/26 02:01:54;;;;;;;123.03;59.35;;;;;;;2.01;79.87;103272.69;5027480;28;20040;-73
2022/01/26 02:04:19;;;;;;;118.85;58.20;;;;;;;2.01;79.59;103265.69;5029136;28;20457;-73
2022/01/26 02:06:44;;;;;;;124.10;57.63;;;;;;;2.02;80.02;103266.56;5026535;28;20037;-73
2022/01/26 02:09:11;;;;;;;123.32;58.92;;;;;;;2.03;80.26;103263.94;5031824;28;20029;-73
2022/01/26 02:11:52;;;;;;;126.05;58.50;;;;;;;2.06;80.29;103259.56;5032927;28;20024;-73
2022/01/26 02:20:07;;;;;;;124.78;58.15;;;;;;;1.99;79.24;103232.50;5023862;28;20034;-72
2022/01/26 02:53:02;;;;;;;115.97;52.97;;;;;;;1.93;79.75;103212.44;5026525;28;20076;-73
2022/01/26 02:58:34;;;;;;;118.90;56.03;;;;;;;1.92;79.53;103191.47;5033515;28;20050;-72
2022/01/26 03:03:29;;;;;;;120.97;56.92;;;;;;;1.87;79.35;103188.84;5033623;28;20037;-72
2022/01/26 03:06:00;;;;;;;121.05;55.75;;;;;;;1.85;79.47;103201.94;5033571;28;20018;-72
2022/01/26 03:08:36;;;;;;;121.05;55.95;;;;;;;1.83;79.57;103193.22;5024780;28;20422;-72
2022/01/26 03:11:11;;;;;;;115.20;54.78;;;;;;;1.80;79.50;103188.00;5033058;28;20100;-72
2022/01/26 03:13:41;;;;;;;123.13;57.15;;;;;;;1.80;79.10;103192.38;5025754;28;20460;-72
2022/01/26 03:16:15;;;;;;;111.13;53.05;;;;;;;1.78;79.44;103181.00;5031824;28;20483;-73
2022/01/26 03:21:23;;;;;;;118.63;55.00;;;;;;;1.77;79.82;103189.75;5033073;28;20068;-72
2022/01/26 03:29:39;;;;;;;123.72;59.00;;;;;;;1.77;79.38;103193.22;5027463;28;20045;-72
2022/01/26 03:35:00;;;;;;;118.05;54.92;;;;;;;1.77;80.11;103200.22;5019358;28;20040;-73
2022/01/26 03:37:36;;;;;;;119.15;55.50;;;;;;;1.77;79.62;103195.00;5032520;28;20025;-73
2022/01/26 03:40:11;;;;;;;119.65;55.92;;;;;;;1.77;79.90;103195.84;5027551;28;20025;-72
2022/01/26 03:42:36;;;;;;;122.07;56.70;;;;;;;1.78;79.43;103191.47;5031106;28;20475;-72
2022/01/26 03:45:02;;;;;;;119.65;56.08;;;;;;;1.77;79.67;103192.38;5030238;28;20071;-72
2022/01/26 03:47:27;;;;;;;115.35;55.35;;;;;;;1.75;79.80;103192.38;5028650;28;20519;-72
2022/01/26 03:49:52;;;;;;;126.78;58.53;;;;;;;1.77;80.16;103182.75;5024435;28;20116;-73
2022/01/26 03:52:17;;;;;;;131.32;59.28;;;;;;;1.76;80.21;103177.50;5030560;28;20495;-72
2022/01/26 03:54:43;;;;;;;117.75;56.67;;;;;;;1.73;79.70;103170.50;5028412;28;20049;-73
2022/01/26 03:57:08;;;;;;;120.75;56.80;;;;;;;1.69;79.95;103175.78;5028365;28;20103;-72
2022/01/26 03:59:33;;;;;;;124.20;55.13;;;;;;;1.66;80.23;103177.50;5032675;28;20026;-70
2022/01/26 04:02:00;;;;;;;115.97;55.95;;;;;;;1.67;80.34;103191.50;5032040;28;20035;-71
2022/01/26 04:04:25;;;;;;;121.38;56.35;;;;;;;1.67;80.04;103183.66;5028357;28;20594;-70
2022/01/26 04:06:51;;;;;;;122.43;58.00;;;;;;;1.66;80.49;103188.00;5023588;28;20100;-71
2022/01/26 04:09:18;;;;;;;121.15;57.03;;;;;;;1.65;80.06;103194.13;5031311;28;20078;-72
2022/01/26 04:11:47;;;;;;;130.10;57.92;;;;;;;1.65;80.48;103186.28;5028198;28;20029;-71
2022/01/26 04:14:15;;;;;;;;;;;;;;;1.69;80.58;103184.50;5028963;28;20056;-71
2022/01/26 04:16:43;;;;;;;122.72;53.38;;;;;;;1.61;80.91;103189.75;5032318;28;19996;-72
2022/01/26 04:19:10;;;;;;;125.22;54.58;;;;;;;1.61;80.86;103183.66;5031931;28;20026;-72
2022/01/26 04:26:36;;;;;;;127.85;57.97;;;;;;;1.56;80.79;103186.25;5031624;28;20112;-70
2022/01/26 04:29:07;;;;;;;124.00;56.55;;;;;;;1.55;81.19;103178.41;5030070;28;20035;-70
2022/01/26 04:31:33;;;;;;;120.43;54.95;;;;;;;1.54;81.24;103181.91;5030070;28;20530;-71
2022/01/26 04:33:58;;;;;;;120.40;56.38;;;;;;;1.55;81.24;103187.16;5031593;28;20025;-71
2022/01/26 04:39:14;;;;;;;119.80;56.60;;;;;;;1.55;81.12;103186.25;5000385;28;20045;-70
2022/01/26 04:42:05;;;;;;;131.48;57.75;;;;;;;1.54;81.50;103197.63;5031622;28;20033;-70
2022/01/26 04:44:30;;;;;;;120.03;56.22;;;;;;;1.54;81.24;103208.97;5022571;28;20139;-70
2022/01/26 04:46:56;;;;;;;120.60;54.15;;;;;;;1.54;81.38;103213.34;5029045;28;20483;-70
2022/01/26 04:49:22;;;;;;;130.25;59.28;;;;;;;1.54;81.76;103215.97;5030758;28;20049;-71
2022/01/26 04:51:47;;;;;;;125.07;56.55;;;;;;;1.54;81.73;103224.69;5027004;28;20817;-70
2022/01/26 04:54:13;;;;;;;120.43;56.85;;;;;;;1.53;81.54;103225.56;5030975;28;20461;-70
2022/01/26 04:56:39;;;;;;;113.38;53.78;;;;;;;1.55;81.57;103223.81;5031629;28;20032;-70
2022/01/26 04:59:05;;;;;;;120.07;54.30;;;;;;;1.55;81.43;103210.72;5030474;28;20032;-70
2022/01/26 05:01:30;;;;;;;128.68;58.10;;;;;;;1.56;81.89;103227.31;5021266;28;20399;-70
2022/01/26 05:03:55;;;;;;;116.82;54.92;;;;;;;1.53;81.68;103214.22;5030863;28;20483;-71
2022/01/26 05:06:21;;;;;;;127.68;56.53;;;;;;;1.55;81.89;103209.84;5029992;28;20109;-71
2022/01/26 05:08:46;;;;;;;117.93;54.22;;;;;;;1.53;81.85;103208.97;5030735;28;20088;-71
2022/01/26 05:11:21;;;;;;;123.10;54.63;;;;;;;1.52;81.99;103207.25;5030180;28;20040;-71
2022/01/26 05:13:46;;;;;;;120.43;54.60;;;;;;;1.52;82.15;103215.97;5022152;28;20037;-71
2022/01/26 05:16:12;;;;;;;123.97;56.22;;;;;;;1.52;81.96;103218.59;5026384;28;20033;-71
2022/01/26 05:18:37;;;;;;;121.70;56.70;;;;;;;1.52;81.94;103213.34;5029340;28;20040;-71
2022/01/26 05:21:03;;;;;;;126.68;56.45;;;;;;;1.53;81.94;103201.13;5026942;28;20076;-71
2022/01/26 05:23:29;;;;;;;122.60;54.90;;;;;;;1.52;81.95;103192.41;5030778;28;20426;-71
2022/01/26 05:25:54;;;;;;;120.30;55.58;;;;;;;1.51;82.19;103184.53;5030696;28;20104;-71
2022/01/26 05:28:19;;;;;;;115.50;54.33;;;;;;;1.48;81.89;103181.06;5028331;28;20030;-71
2022/01/26 05:30:45;;;;;;;120.45;55.30;;;;;;;1.47;82.31;103167.97;5021244;28;20028;-71
2022/01/26 05:33:10;;;;;;;115.28;54.13;;;;;;;1.44;82.41;103168.81;5030288;28;20021;-71
2022/01/26 05:35:35;;;;;;;125.15;54.47;;;;;;;1.44;82.32;103167.97;5019179;28;20116;-71
2022/01/26 05:38:01;;;;;;;121.13;54.63;;;;;;;1.44;82.18;103157.47;5010666;28;20495;-70
2022/01/26 05:40:26;;;;;;;117.85;53.85;;;;;;;1.44;82.08;103170.56;5018389;28;20056;-71
2022/01/26 05:42:52;;;;;;;126.85;56.92;;;;;;;1.44;82.24;103181.91;5045764;28;20559;-71
2022/01/26 05:45:24;;;;;;;122.13;57.03;;;;;;;1.44;82.38;103176.69;5023199;28;20407;-72
2022/01/26 05:47:50;;;;;;;127.57;56.85;;;;;;;1.43;82.29;103172.34;5030208;28;20067;-70
2022/01/26 05:50:15;;;;;;;122.30;53.95;;;;;;;1.44;82.49;103158.34;5029037;28;20448;-72
2022/01/26 05:52:40;;;;;;;118.78;54.05;;;;;;;1.42;82.48;103164.47;5030010;28;20071;-72
2022/01/26 05:55:06;;;;;;;124.75;55.78;;;;;;;1.43;82.40;103174.94;5020731;28;20108;-72
2022/01/26 05:57:32;;;;;;;121.32;55.72;;;;;;;1.43;82.84;103164.47;5027680;28;20056;-72
2022/01/26 05:59:57;;;;;;;126.22;57.30;;;;;;;1.45;82.86;103170.56;5028826;28;20084;-70
2022/01/26 06:02:23;;;;;;;126.97;58.35;;;;;;;1.45;82.60;103167.97;5030213;28;20525;-72
2022/01/26 06:04:48;;;;;;;121.68;56.00;;;;;;;1.45;82.75;103154.88;5022253;28;20441;-72
2022/01/26 06:07:13;;;;;;;124.43;56.75;;;;;;;1.46;83.10;103156.59;5030205;28;20514;-72
2022/01/26 06:09:39;;;;;;;122.22;56.13;;;;;;;1.44;83.01;103147.00;5029853;28;20036;-72
2022/01/26 06:12:04;;;;;;;130.10;57.30;;;;;;;1.44;83.00;103154.88;5023679;28;20076;-72
2022/01/26 06:14:30;;;;;;;132.35;56.45;;;;;;;1.44;83.13;103166.19;5010469;28;20112;-72
2022/01/26 06:16:55;;;;;;;122.20;56.22;;;;;;;1.45;83.36;103164.47;5008995;28;20022;-72
2022/01/26 06:19:20;;;;;;;130.65;57.00;;;;;;;1.48;83.25;103172.31;5009138;28;20038;-72
2022/01/26 06:21:46;;;;;;;131.50;57.53;;;;;;;1.46;83.39;103176.69;5010750;28;20030;-72
2022/01/26 06:24:11;;;;;;;120.50;54.90;;;;;;;1.44;83.24;103171.44;5010382;28;20030;-72
2022/01/26 06:26:37;;;;;;;122.55;56.03;;;;;;;1.45;83.49;103173.19;5025484;28;20021;-72
2022/01/26 06:29:02;;;;;;;122.20;56.00;;;;;;;1.48;83.12;103175.81;5010165;28;20076;-71
2022/01/26 06:31:28;;;;;;;122.47;56.10;;;;;;;1.48;83.07;103156.59;5010299;28;20025;-72
2022/01/26 06:33:54;;;;;;;130.00;58.65;;;;;;;1.46;83.91;103156.59;5010349;28;20026;-72
2022/01/26 06:36:19;;;;;;;124.18;56.85;;;;;;;1.47;83.82;103155.72;5010358;28;20399;-72
2022/01/26 06:38:46;;;;;;;126.25;57.13;;;;;;;1.49;83.58;103150.50;5010247;28;20045;-72
2022/01/26 06:41:13;;;;;;;128.60;56.33;;;;;;;1.50;83.77;103156.59;5023888;28;20029;-71
2022/01/26 06:43:49;;;;;;;126.95;57.05;;;;;;;1.49;84.13;103171.44;5020957;28;20029;-71
2022/01/26 06:46:23;;;;;;;132.02;59.15;;;;;;;1.50;83.78;103178.44;5029932;28;20026;-71
2022/01/26 06:51:32;;;;;;;123.00;55.67;;;;;;;1.52;84.27;103175.81;5029901;28;20037;-71
2022/01/26 06:53:57;;;;;;;124.22;57.30;;;;;;;1.54;84.57;103184.53;5030064;28;20045;-71
2022/01/26 06:56:22;;;;;;;124.65;56.33;;;;;;;1.55;84.41;103178.41;5026572;28;20057;-70
2022/01/26 06:58:48;;;;;;;133.35;59.53;;;;;;;1.55;84.54;103176.69;5027410;28;20042;-70
2022/01/26 07:01:13;;;;;;;131.90;59.17;;;;;;;1.55;84.61;103171.44;5028614;28;20041;-71
2022/01/26 07:03:39;;;;;;;131.23;57.10;;;;;;;1.55;84.72;103157.44;5030747;28;20033;-74
2022/01/26 07:06:04;;;;;;;126.72;57.70;;;;;;;1.55;84.79;103165.31;5022549;28;20037;-71
2022/01/26 07:08:29;;;;;;;127.00;57.17;;;;;;;1.55;84.53;103163.59;5024002;28;20112;-71
2022/01/26 07:10:55;;;;;;;135.35;58.45;;;;;;;1.55;84.91;103167.94;5027258;28;20034;-71
2022/01/26 07:13:20;;;;;;;137.30;58.25;;;;;;;1.56;84.98;103167.06;5025617;28;20666;-71
2022/01/26 07:21:25;;;;;;;131.77;57.25;;;;;;;1.56;85.36;103178.41;5031694;28;20107;-72
2022/01/26 07:23:52;;;;;;;137.45;60.05;;;;;;;1.57;85.25;103188.03;5022129;28;20038;-71
2022/01/26 07:26:18;;;;;;;140.55;60.15;;;;;;;1.58;85.64;103201.97;5033325;28;20064;-71
2022/01/26 07:28:44;;;;;;;141.35;59.75;;;;;;;1.59;85.25;103217.69;5030470;28;20053;-71
2022/01/26 07:31:10;;;;;;;145.27;63.63;;;;;;;1.60;85.66;103202.84;5028920;28;20513;-71
2022/01/26 07:33:37;;;;;;;139.70;60.45;;;;;;;1.59;85.86;103182.78;5030194;28;20392;-72
2022/01/26 07:36:03;;;;;;;132.48;59.25;;;;;;;1.61;85.94;103196.75;5020440;28;20096;-71
2022/01/26 07:38:29;;;;;;;143.15;60.60;;;;;;;1.61;85.64;103196.75;5030463;28;20025;-72
2022/01/26 07:40:54;;;;;;;133.20;58.38;;;;;;;1.62;86.31;103188.88;5019187;28;20096;-71
2022/01/26 07:43:20;;;;;;;138.02;62.25;;;;;;;1.62;86.22;103195.88;5031019;28;20060;-70
2022/01/26 07:45:46;;;;;;;142.50;60.85;;;;;;;1.63;86.42;103192.38;5035485;28;20048;-72
2022/01/26 07:48:11;;;;;;;140.73;60.88;;;;;;;1.63;86.70;103187.13;5033653;28;20033;-71
2022/01/26 07:50:37;;;;;;;139.82;60.25;;;;;;;1.62;86.59;103190.66;5029148;28;20468;-71
2022/01/26 07:53:03;;;;;;;140.48;60.78;;;;;;;1.62;87.08;103191.50;5033072;28;20045;-71
2022/01/26 07:55:28;;;;;;;135.68;58.90;;;;;;;1.64;86.82;103191.50;5033352;28;20064;-71
2022/01/26 07:57:56;;;;;;;139.07;59.55;;;;;;;1.64;87.04;103187.13;5029141;28;20464;-71
2022/01/26 08:00:22;;;;;;;145.18;60.30;;;;;;;1.62;87.04;103194.13;5033308;28;20045;-70
2022/01/26 08:02:47;;;;;;;143.82;60.13;;;;;;;1.65;87.39;103198.50;5028342;28;20499;-71
2022/01/26 08:05:14;;;;;;;135.40;56.78;;;;;;;1.66;87.35;103227.28;5031850;28;20056;-71
2022/01/26 08:07:39;;;;;;;144.65;60.13;;;;;;;1.66;87.47;103231.66;5031458;28;20029;-71
2022/01/26 08:10:07;;;;;;;149.90;60.17;;;;;;;1.65;87.56;103229.94;5029738;28;20041;-71
2022/01/26 08:12:33;;;;;;;139.60;57.50;;;;;;;1.65;87.89;103219.47;5028511;28;20116;-71
2022/01/26 08:14:59;;;;;;;137.00;60.25;;;;;;;1.64;88.07;103208.09;5031635;28;20116;-70
2022/01/26 08:17:24;;;;;;;135.48;56.60;;;;;;;1.67;88.22;103217.72;5028576;28;20163;-70
2022/01/26 08:19:52;;;;;;;134.90;56.95;;;;;;;1.67;88.27;103221.19;5028515;28;20095;-71
2022/01/26 08:22:19;;;;;;;141.25;58.25;;;;;;;1.69;88.19;103231.66;5029106;28;20136;-73
2022/01/26 08:24:45;;;;;;;144.60;57.03;;;;;;;1.70;88.19;103232.53;5032704;28;20041;-72
2022/01/26 08:27:13;;;;;;;133.98;57.70;;;;;;;1.70;88.68;103229.91;5021893;28;20025;-73
2022/01/26 08:29:51;;;;;;;143.30;58.35;;;;;;;1.71;88.74;103216.81;5032603;28;20092;-73
2022/01/26 08:32:17;;;;;;;138.15;55.05;;;;;;;1.72;88.91;103209.84;5032475;28;20053;-73
2022/01/26 08:34:42;;;;;;;139.77;57.03;;;;;;;1.71;88.70;103215.94;5033889;28;20047;-73
2022/01/26 08:37:08;;;;;;;143.13;58.17;;;;;;;1.72;89.19;103210.72;5028231;28;20072;-72
2022/01/26 08:39:34;;;;;;;142.68;59.05;;;;;;;1.70;89.20;103211.56;5021566;28;20042;-72
2022/01/26 08:42:02;;;;;;;145.82;59.60;;;;;;;1.73;89.39;103222.91;5009753;28;20048;-72
2022/01/26 08:44:27;;;;;;;141.05;58.15;;;;;;;1.73;89.41;103216.81;5030728;28;20036;-72
2022/01/26 08:46:54;;;;;;;144.18;56.47;;;;;;;1.73;89.59;103216.81;5025460;28;20042;-73
2022/01/26 08:49:19;;;;;;;138.07;56.70;;;;;;;1.73;89.60;103222.91;5030954;28;20419;-72
2022/01/26 08:51:48;;;;;;;139.13;57.13;;;;;;;1.73;89.81;103222.06;5024297;28;20030;-72
2022/01/26 08:54:14;;;;;;;136.77;57.95;;;;;;;1.74;89.75;103221.19;5033003;28;20042;-72
2022/01/26 08:56:40;;;;;;;128.02;53.28;;;;;;;1.75;89.60;103223.81;5025172;28;20598;-73
2022/01/26 08:59:05;;;;;;;128.45;53.70;;;;;;;1.78;89.65;103221.19;5028190;28;20060;-72
2022/01/26 09:01:30;;;;;;;120.93;52.25;;;;;;;1.78;89.69;103229.06;5033118;28;20045;-73
2022/01/26 09:03:55;;;;;;;120.65;54.95;;;;;;;1.79;89.62;103229.91;5030895;28;20055;-72
2022/01/26 09:06:21;;;;;;;120.50;53.25;;;;;;;1.81;89.55;103222.91;5027923;28;20045;-73
2022/01/26 09:08:51;;;;;;;120.32;53.40;;;;;;;1.83;89.67;103226.41;5025098;28;20063;-73
2022/01/26 09:11:21;;;;;;;120.90;54.20;;;;;;;1.84;89.67;103218.53;5030595;28;20038;-71
2022/01/26 09:13:51;;;;;;;131.18;52.72;;;;;;;1.85;89.76;103224.66;5023394;28;20022;-71
2022/01/26 09:16:18;;;;;;;126.15;53.60;;;;;;;1.86;89.59;103226.41;5012607;28;20032;-70
2022/01/26 09:18:50;;;;;;;117.03;52.00;;;;;;;1.86;89.62;103218.53;5010449;28;20045;-70
2022/01/26 09:21:16;;;;;;;123.35;52.92;;;;;;;1.88;89.53;103229.88;5012935;28;20404;-71
2022/01/26 09:23:41;;;;;;;119.53;53.33;;;;;;;1.89;89.39;103234.25;5013235;28;20026;-71
2022/01/26 09:26:07;;;;;;;121.30;51.83;;;;;;;1.91;89.62;103235.13;5011007;28;20032;-71
2022/01/26 09:28:32;;;;;;;111.95;51.22;;;;;;;1.92;89.68;103241.25;5025839;28;20114;-71
2022/01/26 09:30:57;;;;;;;118.15;51.15;;;;;;;1.92;89.72;103239.50;5031631;28;20027;-72
2022/01/26 09:33:23;;;;;;;118.72;53.60;;;;;;;1.95;89.60;103239.50;5028951;28;20034;-71
2022/01/26 09:35:49;;;;;;;109.13;51.47;;;;;;;1.97;90.14;103245.59;5025479;28;20030;-71
2022/01/26 09:38:14;;;;;;;116.43;51.65;;;;;;;1.98;89.77;103246.47;5014543;28;20022;-71
2022/01/26 09:40:39;;;;;;;116.32;50.67;;;;;;;2.00;89.89;103242.97;5013819;28;20022;-71
2022/01/26 09:43:05;;;;;;;114.57;50.17;;;;;;;2.01;89.86;103230.75;5012579;28;20026;-70
2022/01/26 09:45:34;;;;;;;115.72;51.55;;;;;;;2.02;89.37;103228.13;5006789;28;20036;-71
2022/01/26 09:48:03;;;;;;;110.72;49.47;;;;;;;2.04;89.32;103217.63;5017064;28;20022;-70
2022/01/26 09:50:29;;;;;;;100.93;47.95;;;;;;;2.04;89.18;103212.38;5011101;28;20028;-71
2022/01/26 09:52:56;;;;;;;109.78;50.83;;;;;;;2.07;89.47;103204.53;5017001;28;20411;-71
2022/01/26 09:55:22;;;;;;;96.63;47.90;;;;;;;2.09;88.84;103196.66;5027270;28;20049;-70
2022/01/26 09:57:47;;;;;;;102.30;47.97;;;;;;;2.11;89.14;103200.13;5029123;28;20041;-70
2022/01/26 10:00:14;;;;;;;100.60;47.90;;;;;;;2.12;88.86;103205.38;5021369;28;20026;-70
2022/01/26 10:02:39;;;;;;;98.25;47.33;;;;;;;2.15;89.21;103205.38;5029148;28;20034;-71
2022/01/26 10:05:10;;;;;;;95.38;46.47;;;;;;;2.15;88.66;103209.72;5023919;28;20034;-71
2022/01/26 10:07:47;;;;;;;90.95;44.83;;;;;;;2.18;88.79;103210.59;5020495;28;20164;-71
2022/01/26 10:15:36;;;;;;;85.85;43.55;;;;;;;2.26;88.39;103205.31;5018467;28;20044;-71
2022/01/26 10:18:15;;;;;;;89.13;45.00;;;;;;;2.29;88.07;103202.69;5029558;28;20030;-72
2022/01/26 10:20:40;;;;;;;83.80;44.75;;;;;;;2.30;87.88;103211.41;5030106;28;20430;-72
2022/01/26 10:23:08;;;;;;;87.18;45.00;;;;;;;2.31;87.73;103210.56;5024321;28;20124;-71
2022/01/26 10:25:33;;;;;;;82.95;45.15;;;;;;;2.31;87.73;103205.31;5016123;28;20123;-72
2022/01/26 10:27:59;;;;;;;84.22;44.03;;;;;;;2.31;88.09;103194.81;5029582;28;20156;-71
2022/01/26 10:30:24;;;;;;;85.45;44.70;;;;;;;2.31;88.17;103185.19;5032743;28;20017;-71
2022/01/26 10:32:50;;;;;;;85.50;44.58;;;;;;;2.34;88.03;103185.19;5028391;28;20030;-71
2022/01/26 10:35:15;;;;;;;87.40;45.33;;;;;;;2.35;88.21;103193.94;5033389;28;20468;-71
2022/01/26 10:37:58;;;;;;;84.28;44.55;;;;;;;2.37;88.20;103200.91;5025784;28;20480;-71
2022/01/26 10:40:26;;;;;;;86.75;44.53;;;;;;;2.37;88.16;103205.28;5029247;28;20483;-71
2022/01/26 10:43:21;;;;;;;88.22;44.70;;;;;;;2.37;87.85;103221.88;5021000;28;20034;-72
2022/01/26 10:49:03;;;;;;;83.97;43.67;;;;;;;2.39;87.91;103261.22;5029214;28;20041;-72
2022/01/26 10:51:51;;;;;;;96.32;44.60;;;;;;;2.40;88.00;103258.59;5026734;28;20051;-71
2022/01/26 10:54:36;;;;;;;85.18;44.75;;;;;;;2.40;88.13;103253.34;5013501;28;20471;-72
2022/01/26 10:57:04;;;;;;;88.70;47.08;;;;;;;2.42;88.51;103239.38;5020191;28;20029;-72
2022/01/26 10:59:33;;;;;;;88.28;44.17;;;;;;;2.45;88.31;103239.34;5032669;28;20068;-71
2022/01/26 11:02:01;;;;;;;86.63;45.47;;;;;;;2.45;88.44;103239.34;5030837;28;20033;-72
2022/01/26 11:04:27;;;;;;;92.88;47.47;;;;;;;2.45;88.42;103234.97;5030222;28;20049;-72
2022/01/26 11:06:54;;;;;;;86.78;43.95;;;;;;;2.47;88.61;103227.13;5032027;28;20025;-72
2022/01/26 11:09:23;;;;;;;89.70;45.65;;;;;;;2.49;88.50;103230.59;5025999;28;20050;-72
2022/01/26 11:11:59;;;;;;;88.22;45.85;;;;;;;2.48;88.38;103234.97;5026196;28;20083;-73
2022/01/26 11:14:25;;;;;;;86.10;45.15;;;;;;;2.49;88.48;103230.59;5020000;28;20052;-70
2022/01/26 11:17:00;;;;;;;98.13;47.50;;;;;;;2.50;88.51;103217.47;5027754;28;20427;-70
2022/01/26 11:19:26;;;;;;;88.95;45.42;;;;;;;2.51;88.29;103221.81;5036217;28;20106;-71
2022/01/26 11:21:51;;;;;;;85.38;45.15;;;;;;;2.54;88.61;103218.31;5039602;28;20491;-70
2022/01/26 11:24:20;;;;;;;88.88;45.78;;;;;;;2.54;88.60;103218.31;5040089;28;20072;-71
2022/01/26 11:27:03;;;;;;;86.72;46.65;;;;;;;2.57;88.17;103210.44;5031461;28;20100;-71
2022/01/26 11:29:33;;;;;;;84.03;45.38;;;;;;;2.55;88.49;103204.34;5027732;28;20073;-72
2022/01/26 11:32:34;;;;;;;95.13;47.08;;;;;;;2.58;88.56;103205.19;5021094;28;20059;-71
2022/01/26 11:35:04;;;;;;;86.22;42.78;;;;;;;2.59;88.21;103209.53;5031584;28;20037;-71
2022/01/26 11:37:45;;;;;;;87.78;45.70;;;;;;;2.64;88.52;103213.91;5031645;28;20045;-70
2022/01/26 11:45:35;;;;;;;96.32;45.70;;;;;;;2.64;88.43;103188.53;5019621;28;20045;-70
2022/01/26 11:48:08;;;;;;;89.78;46.17;;;;;;;2.65;88.05;103184.16;5030064;28;20033;-69
2022/01/26 11:50:35;;;;;;;81.72;44.85;;;;;;;2.66;88.96;103176.28;5031705;28;20045;-70
2022/01/26 11:53:07;;;;;;;93.43;47.53;;;;;;;2.67;88.46;103174.53;5027374;28;20041;-71
2022/01/26 11:55:47;;;;;;;85.95;45.67;;;;;;;2.68;88.36;103181.50;5032242;28;20061;-71
2022/01/26 11:58:18;;;;;;;94.20;47.15;;;;;;;2.70;88.43;103175.38;5023827;28;20041;-72
2022/01/26 12:00:56;;;;;;;91.30;45.22;;;;;;;2.71;88.10;103176.25;5030701;28;20045;-73
2022/01/26 12:03:30;;;;;;;86.60;46.45;;;;;;;2.69;88.29;103178.88;5016910;28;20551;-72
2022/01/26 12:05:58;;;;;;;90.85;46.25;;;;;;;2.71;88.16;103169.25;5021881;28;20046;-72
2022/01/26 12:08:27;;;;;;;86.03;45.17;;;;;;;2.70;88.17;103170.13;5040493;28;20037;-72
2022/01/26 12:10:55;;;;;;;87.72;44.83;;;;;;;2.72;88.02;103176.25;5030924;28;20105;-72
2022/01/26 12:13:25;;;;;;;94.68;46.75;;;;;;;2.71;88.23;103158.75;5029398;28;20033;-72
2022/01/26 12:16:24;;;;;;;93.53;47.83;;;;;;;2.74;88.03;103161.34;5013769;28;20159;-71
2022/01/26 12:33:30;;;;;;;94.15;46.47;;;;;;;2.85;88.21;103163.91;5023246;28;20036;-71
2022/01/26 12:38:30;;;;;;;86.75;45.15;;;;;;;2.86;87.34;103173.53;5030461;28;20124;-71
2022/01/26 12:43:57;;;;;;;86.28;44.65;;;;;;;2.93;87.48;103169.09;5017970;28;20180;-71
2022/01/26 12:46:25;;;;;;;86.80;43.85;;;;;;;2.93;87.30;103166.47;5026927;28;20036;-71
2022/01/26 12:48:56;;;;;;;82.55;43.97;;;;;;;2.96;87.50;103169.06;5027647;28;20450;-71
2022/01/26 12:51:22;;;;;;;77.85;43.15;;;;;;;2.97;87.11;103171.69;5028312;28;20022;-72
2022/01/26 12:53:57;;;;;;;85.90;44.28;;;;;;;3.00;87.11;103170.81;5029595;28;20076;-71
2022/01/26 12:56:27;;;;;;;83.47;45.33;;;;;;;3.03;87.07;103175.16;5028268;28;20427;-72
2022/01/26 12:59:22;;;;;;;79.00;44.35;;;;;;;3.04;87.08;103162.03;5029931;28;20426;-71
2022/01/26 13:01:53;;;;;;;78.03;44.30;;;;;;;3.05;86.95;103173.38;5025169;28;20045;-72
2022/01/26 13:04:18;;;;;;;80.13;43.42;;;;;;;3.08;87.17;103166.38;5028848;28;20057;-72
2022/01/26 13:06:51;;;;;;;83.97;43.38;;;;;;;3.11;87.13;103169.00;5023359;28;20126;-71
2022/01/26 13:09:27;;;;;;;74.15;43.83;;;;;;;3.10;86.75;103164.59;5028400;28;20317;-72
2022/01/26 13:11:55;;;;;;;83.57;44.45;;;;;;;3.09;86.60;103156.75;5017657;28;20032;-72
2022/01/26 13:14:27;;;;;;;76.35;42.47;;;;;;;3.10;86.73;103146.22;5029788;28;20056;-72
2022/01/26 13:17:36;;;;;;;76.45;43.05;;;;;;;3.12;86.60;103139.19;5028431;28;20040;-72
2022/01/26 13:33:37;;;;;;;77.95;43.17;;;;;;;3.19;86.21;103134.75;5030360;28;20034;-71
2022/01/26 13:39:15;;;;;;;76.93;42.67;;;;;;;3.25;86.11;103124.22;5022705;28;20030;-72
2022/01/26 13:44:30;;;;;;;76.45;40.60;;;;;;;3.31;86.11;103141.66;5012758;28;20044;-72
2022/01/26 13:47:10;;;;;;;69.97;40.22;;;;;;;3.30;85.68;103138.19;5025944;28;20175;-72